createdAt,value
2018-02-18T00:04:02.038Z,71.67
2018-02-18T00:09:03.472Z,71.99
2018-02-18T00:14:04.891Z,72.06
2018-02-18T00:19:06.226Z,71.60
2018-02-18T00:24:07.556Z,71.49
2018-02-18T00:29:08.889Z,71.09
2018-02-18T00:34:10.294Z,70.86
2018-02-18T00:39:11.747Z,71.14
2018-02-18T00:44:13.084Z,71.44
2018-02-18T00:49:14.467Z,71.76
2018-02-18T00:54:15.821Z,71.66
2018-02-18T00:59:17.886Z,71.46
2018-02-18T01:04:19.323Z,71.31
2018-02-18T01:09:21.384Z,71.27
2018-02-18T01:14:22.729Z,71.27
2018-02-18T01:19:24.856Z,70.97
2018-02-18T01:24:26.165Z,70.84
2018-02-18T01:29:27.497Z,71.34
2018-02-18T01:34:28.907Z,71.36
2018-02-18T01:39:30.979Z,71.52
2018-02-18T01:44:32.311Z,71.31
2018-02-18T01:49:33.648Z,71.47
2018-02-18T01:54:35.327Z,71.40
2018-02-18T01:59:36.644Z,71.38
2018-02-18T02:04:38.000Z,71.38
2018-02-18T02:09:39.459Z,71.30
2018-02-18T02:14:41.583Z,71.74
2018-02-18T02:19:42.950Z,72.02
2018-02-18T02:24:45.043Z,71.99
2018-02-18T02:29:46.429Z,72.13
2018-02-18T02:34:47.791Z,72.29
2018-02-18T02:39:49.153Z,72.21
2018-02-18T02:44:50.465Z,72.02
2018-02-18T02:49:51.879Z,71.79
2018-02-18T02:54:53.304Z,71.78
2018-02-18T02:59:54.642Z,71.83
2018-02-18T03:04:55.997Z,71.60
2018-02-18T03:09:57.363Z,71.33
2018-02-18T03:14:58.767Z,71.67
2018-02-18T03:20:00.158Z,71.61
2018-02-18T03:25:02.319Z,71.75
2018-02-18T03:30:03.654Z,71.48
2018-02-18T03:35:05.899Z,71.34
2018-02-18T03:40:07.248Z,71.46
2018-02-18T03:45:09.338Z,71.66
2018-02-18T03:50:10.732Z,71.84
2018-02-18T03:55:12.153Z,71.64
2018-02-18T04:00:20.467Z,71.28
2018-02-18T04:05:21.905Z,70.96
2018-02-18T04:10:23.242Z,71.23
2018-02-18T04:15:24.699Z,71.25
2018-02-18T04:20:26.262Z,71.35
2018-02-18T04:25:27.716Z,71.56
2018-02-18T04:30:34.039Z,71.57
2018-02-18T04:35:35.600Z,71.47
2018-02-18T04:40:37.094Z,71.49
2018-02-18T04:45:38.477Z,71.38
2018-02-18T04:50:39.901Z,71.07
2018-02-18T04:55:42.891Z,71.29
2018-02-18T05:00:44.399Z,71.26
2018-02-18T05:05:45.950Z,71.27
2018-02-18T05:10:47.469Z,71.17
2018-02-18T05:15:48.996Z,71.12
2018-02-18T05:20:50.504Z,71.26
2018-02-18T05:25:52.064Z,71.32
2018-02-18T05:30:53.633Z,70.96
2018-02-18T05:35:55.186Z,70.94
2018-02-18T05:40:56.742Z,70.90
2018-02-18T05:45:58.315Z,70.95
2018-02-18T05:51:00.559Z,71.10
2018-02-18T05:56:02.089Z,71.07
2018-02-18T06:01:03.619Z,70.87
2018-02-18T06:06:05.106Z,70.99
2018-02-18T06:11:06.650Z,70.83
2018-02-18T06:16:08.187Z,70.86
2018-02-18T06:21:09.764Z,71.15
2018-02-18T06:26:16.652Z,71.23
2018-02-18T06:31:18.296Z,71.36
2018-02-18T06:36:20.550Z,71.07
2018-02-18T06:41:22.189Z,71.19
2018-02-18T06:46:23.802Z,71.26
2018-02-18T06:51:26.120Z,71.49
2018-02-18T06:56:27.534Z,71.29
2018-02-18T07:01:29.096Z,71.21
2018-02-18T07:06:31.364Z,71.10
2018-02-18T07:11:32.802Z,70.76
2018-02-18T07:16:35.064Z,70.87
2018-02-18T07:21:36.462Z,70.87
2018-02-18T07:26:37.964Z,70.73
2018-02-18T07:31:40.366Z,70.65
2018-02-18T07:36:41.944Z,70.81
2018-02-18T07:41:43.644Z,71.01
2018-02-18T07:46:45.111Z,71.04
2018-02-18T07:51:46.975Z,71.04
2018-02-18T07:56:48.492Z,71.25
2018-02-18T08:01:50.709Z,71.57
2018-02-18T08:06:52.920Z,71.69
2018-02-18T08:11:54.502Z,71.82
2018-02-18T08:16:56.060Z,71.82
2018-02-18T08:21:57.464Z,71.77
2018-02-18T08:26:59.057Z,71.67
2018-02-18T08:32:01.228Z,71.47
2018-02-18T08:37:02.712Z,71.23
2018-02-18T08:42:04.255Z,71.18
2018-02-18T08:47:05.712Z,71.09
2018-02-18T08:52:07.284Z,70.58
2018-02-18T08:57:08.934Z,70.44
2018-02-18T09:02:10.494Z,70.19
2018-02-18T09:07:12.113Z,69.89
2018-02-18T09:12:13.693Z,69.66
2018-02-18T09:17:15.186Z,69.26
2018-02-18T09:22:16.785Z,68.86
2018-02-18T09:27:18.206Z,68.65
2018-02-18T09:32:19.779Z,68.26
2018-02-18T09:37:21.347Z,67.60
2018-02-18T09:42:22.899Z,66.58
2018-02-18T09:47:25.145Z,65.68
2018-02-18T09:52:26.652Z,65.19
2018-02-18T09:57:28.207Z,63.88
2018-02-18T10:02:30.497Z,62.93
2018-02-18T10:07:32.020Z,62.43
2018-02-18T10:12:34.309Z,62.40
2018-02-18T10:17:36.641Z,62.00
2018-02-18T10:22:38.183Z,61.68
2018-02-18T10:27:40.606Z,61.19
2018-02-18T10:32:42.340Z,60.33
2018-02-18T10:37:44.687Z,59.61
2018-02-18T10:42:46.192Z,59.20
2018-02-18T10:47:47.823Z,58.88
2018-02-18T10:52:49.400Z,58.05
2018-02-18T10:57:50.802Z,57.82
2018-02-18T11:02:52.319Z,57.56
2018-02-18T11:07:53.863Z,56.66
2018-02-18T11:12:55.430Z,56.40
2018-02-18T11:17:57.996Z,56.24
2018-02-18T11:22:59.597Z,55.67
2018-02-18T11:28:01.244Z,55.00
2018-02-18T11:33:02.849Z,55.09
2018-02-18T11:38:04.267Z,54.90
2018-02-18T11:43:05.840Z,54.87
2018-02-18T11:48:07.394Z,54.03
2018-02-18T11:53:08.962Z,53.22
2018-02-18T11:58:10.562Z,53.02
2018-02-18T12:03:12.138Z,52.37
2018-02-18T12:08:13.681Z,51.62
2018-02-18T12:13:15.932Z,51.77
2018-02-18T12:18:17.481Z,51.73
2018-02-18T12:23:18.854Z,50.39
2018-02-18T12:28:20.451Z,50.48
2018-02-18T12:33:21.974Z,50.00
2018-02-18T12:38:24.241Z,49.19
2018-02-18T12:43:25.826Z,49.63
2018-02-18T12:48:27.418Z,48.59
2018-02-18T12:53:28.991Z,49.53
2018-02-18T12:58:30.567Z,49.03
2018-02-18T13:03:32.140Z,48.11
2018-02-18T13:08:34.542Z,47.54
2018-02-18T13:13:36.098Z,47.42
2018-02-18T13:18:37.629Z,47.89
2018-02-18T13:23:39.201Z,48.70
2018-02-18T13:28:40.753Z,48.47
2018-02-18T13:33:43.029Z,48.84
2018-02-18T13:38:44.551Z,47.64
2018-02-18T13:43:46.861Z,47.23
2018-02-18T13:48:49.157Z,47.67
2018-02-18T13:53:50.665Z,47.87
2018-02-18T13:58:52.936Z,46.79
2018-02-18T14:03:54.466Z,46.54
2018-02-18T14:08:56.210Z,46.84
2018-02-18T14:13:57.832Z,46.71
2018-02-18T14:18:59.482Z,47.35
2018-02-18T14:24:01.112Z,47.43
2018-02-18T14:29:02.669Z,47.40
2018-02-18T14:34:04.199Z,47.80
2018-02-18T14:39:05.712Z,47.69
2018-02-18T14:44:25.530Z,47.76
2018-02-18T14:49:45.303Z,48.65
2018-02-18T15:00:33.428Z,49.55
2018-02-18T15:05:34.940Z,49.76
2018-02-18T15:10:37.210Z,50.22
2018-02-18T15:15:38.842Z,50.56
2018-02-18T15:20:41.144Z,50.88
2018-02-18T15:25:42.843Z,50.92
2018-02-18T15:30:45.139Z,50.95
2018-02-18T15:35:46.751Z,50.83
2018-02-18T15:40:49.661Z,50.90
2018-02-18T15:45:51.279Z,51.16
2018-02-18T15:50:52.889Z,51.70
2018-02-18T15:55:54.520Z,52.26
2018-02-18T16:00:56.011Z,52.32
2018-02-18T16:05:57.627Z,52.16
2018-02-18T16:10:59.205Z,51.96
2018-02-18T16:16:00.839Z,51.62
2018-02-18T16:21:02.388Z,51.60
2018-02-18T16:26:04.002Z,52.05
2018-02-18T16:31:06.380Z,52.55
2018-02-18T16:36:07.937Z,53.22
2018-02-18T16:41:10.306Z,53.70
2018-02-18T16:46:11.826Z,53.93
2018-02-18T16:51:13.464Z,54.27
2018-02-18T16:56:15.007Z,54.65
2018-02-18T17:01:16.537Z,55.29
2018-02-18T17:06:18.088Z,55.93
2018-02-18T17:11:19.719Z,56.20
2018-02-18T17:16:21.309Z,56.80
2018-02-18T17:21:22.956Z,56.97
2018-02-18T17:26:24.542Z,57.08
2018-02-18T17:31:26.202Z,57.48
2018-02-18T17:36:27.776Z,58.06
2018-02-18T17:41:29.411Z,58.47
2018-02-18T17:46:31.024Z,58.33
2018-02-18T17:51:32.672Z,58.39
2018-02-18T17:56:34.205Z,58.92
2018-02-18T18:01:35.798Z,59.66
2018-02-18T18:06:37.330Z,59.93
2018-02-18T18:11:38.861Z,60.10
2018-02-18T18:16:40.395Z,60.16
2018-02-18T18:21:41.815Z,60.19
2018-02-18T18:26:44.402Z,60.48
2018-02-18T18:31:45.983Z,60.93
2018-02-18T18:36:47.369Z,61.30
2018-02-18T18:41:48.732Z,61.58
2018-02-18T18:46:50.170Z,62.00
2018-02-18T18:51:51.701Z,62.24
2018-02-18T18:56:53.254Z,62.58
2018-02-18T19:01:54.830Z,62.30
2018-02-18T19:06:57.156Z,62.25
2018-02-18T19:11:58.782Z,61.75
2018-02-18T19:17:00.387Z,61.97
2018-02-18T19:22:01.957Z,62.23
2018-02-18T19:27:03.512Z,62.09
2018-02-18T19:32:05.067Z,61.46
2018-02-18T19:37:06.415Z,60.67
2018-02-18T19:42:08.820Z,60.25
2018-02-18T19:47:10.377Z,60.31
2018-02-18T19:52:12.669Z,60.52
2018-02-18T19:57:14.241Z,60.19
2018-02-18T20:02:15.821Z,60.11
2018-02-18T20:07:17.342Z,60.73
2018-02-18T20:12:18.701Z,61.20
2018-02-18T20:17:20.279Z,61.92
2018-02-18T20:22:21.881Z,62.68
2018-02-18T20:27:23.500Z,62.31
2018-02-18T20:32:25.153Z,61.91
2018-02-18T20:37:26.774Z,61.70
2018-02-18T20:42:29.087Z,61.43
2018-02-18T20:47:30.779Z,61.11
2018-02-18T20:52:32.487Z,60.85
2018-02-18T20:57:34.037Z,60.63
2018-02-18T21:02:35.479Z,60.63
2018-02-18T21:07:37.190Z,60.36
2018-02-18T21:12:38.539Z,60.39
2018-02-18T21:17:40.078Z,60.31
2018-02-18T21:22:41.603Z,60.43
2018-02-18T21:27:43.290Z,60.22
2018-02-18T21:32:44.824Z,60.33
2018-02-18T21:37:46.453Z,60.49
2018-02-18T21:42:48.060Z,60.60
2018-02-18T21:47:49.870Z,60.36
2018-02-18T21:52:51.388Z,60.01
2018-02-18T21:57:52.829Z,59.73
2018-02-18T22:02:55.096Z,59.80
2018-02-18T22:07:56.663Z,60.01
2018-02-18T22:12:58.255Z,60.60
2018-02-18T22:17:59.912Z,61.57
2018-02-18T22:23:02.179Z,62.23
2018-02-18T22:28:03.800Z,62.13
2018-02-18T22:33:05.348Z,61.77
2018-02-18T22:38:06.703Z,61.81
2018-02-18T22:43:08.341Z,62.13
2018-02-18T22:48:09.820Z,62.17
2018-02-18T22:53:11.392Z,62.04
2018-02-18T22:58:13.655Z,61.82
2018-02-18T23:03:15.186Z,61.44
2018-02-18T23:08:16.852Z,61.33
2018-02-18T23:13:18.188Z,61.22
2018-02-18T23:18:20.434Z,61.33
2018-02-18T23:23:22.191Z,61.03
2018-02-18T23:28:24.491Z,61.05
2018-02-18T23:33:25.845Z,61.42
2018-02-18T23:38:27.379Z,61.65
2018-02-18T23:43:28.911Z,62.18
2018-02-18T23:48:30.474Z,62.91
2018-02-18T23:53:32.536Z,63.51
2018-02-18T23:58:33.983Z,63.88
